Terminal Aerodrome Forecast
Issued by NWS Portland, OR

Home | Current Version | Previous Version | Text Only | Print | Product List | Glossary On
Versions: 1 2 3 4 5 6 7 8 9 10 11 12 13 14 15 16 17 18 19 20 21 22 23 24 25 26 27 28
000
FTUS46 KPQR 210249 AAA
TAFPDX
TAF AMD
KPDX 210249Z 2103/2124 18008KT P6SM FEW040 OVC070
     FM210800 13016G27KT P6SM -RA SCT025 OVC040
     FM211500 13018G26KT 5SM -RA BR OVC019=

USA.gov is the U.S. government's official web portal to all federal, state and local government web resources and services.